createdAt,value
2019-03-21T00:01:27.664Z,2.02
2019-03-21T00:04:01.752Z,2.67
2019-03-21T00:06:33.972Z,2.27
2019-03-21T00:09:07.208Z,2.15
2019-03-21T00:11:58.398Z,1.80
2019-03-21T00:17:03.415Z,1.60
2019-03-21T00:19:35.858Z,1.65
2019-03-21T00:22:08.101Z,1.72
2019-03-21T00:24:40.345Z,1.87
2019-03-21T00:27:12.593Z,1.60
2019-03-21T00:29:44.830Z,1.95
2019-03-21T00:32:17.058Z,1.85
2019-03-21T00:34:49.313Z,2.40
2019-03-21T00:37:21.550Z,1.98
2019-03-21T00:39:53.783Z,1.92
2019-03-21T00:42:26.035Z,1.60
2019-03-21T00:44:58.278Z,2.10
2019-03-21T00:47:30.526Z,1.80
2019-03-21T00:50:03.514Z,2.17
2019-03-21T00:52:35.755Z,1.93
2019-03-21T00:55:09.782Z,1.90
2019-03-21T00:57:42.004Z,1.77
2019-03-21T01:00:15.774Z,1.82
2019-03-21T01:02:48.021Z,2.12
2019-03-21T01:05:20.283Z,2.20
2019-03-21T01:07:52.531Z,1.98
2019-03-21T01:10:26.032Z,1.92
2019-03-21T01:12:58.266Z,2.22
2019-03-21T01:15:30.795Z,2.10
2019-03-21T01:18:03.052Z,2.33
2019-03-21T01:20:35.284Z,2.52
2019-03-21T01:23:07.509Z,2.72
2019-03-21T01:25:44.574Z,2.72
2019-03-21T01:28:16.792Z,2.30
2019-03-21T01:30:49.050Z,2.00
2019-03-21T01:33:21.267Z,2.00
2019-03-21T01:35:53.504Z,2.10
2019-03-21T01:38:25.746Z,2.00
2019-03-21T01:40:59.075Z,1.60
2019-03-21T01:43:31.357Z,1.95
2019-03-21T01:46:05.120Z,2.10
2019-03-21T01:48:37.362Z,1.93
2019-03-21T01:51:09.603Z,1.82
2019-03-21T01:53:41.832Z,1.87
2019-03-21T01:56:14.098Z,2.08
2019-03-21T01:58:46.381Z,2.10
2019-03-21T02:01:18.607Z,2.20
2019-03-21T02:03:50.838Z,2.20
2019-03-21T02:06:23.068Z,1.80
2019-03-21T02:08:55.298Z,2.00
2019-03-21T02:11:27.515Z,1.92
2019-03-21T02:13:59.745Z,1.70
2019-03-21T02:16:31.966Z,1.87
2019-03-21T02:19:04.213Z,2.02
2019-03-21T02:21:36.486Z,1.67
2019-03-21T02:24:08.758Z,1.77
2019-03-21T02:26:41.008Z,2.10
2019-03-21T02:29:13.240Z,2.50
2019-03-21T02:31:45.548Z,2.65
2019-03-21T02:34:17.790Z,2.85
2019-03-21T02:36:50.001Z,2.65
2019-03-21T02:39:22.288Z,2.15
2019-03-21T02:41:54.493Z,2.30
2019-03-21T02:44:26.738Z,2.00
2019-03-21T02:46:58.970Z,1.87
2019-03-21T02:49:31.200Z,1.65
2019-03-21T02:52:03.447Z,1.85
2019-03-21T02:54:35.691Z,1.62
2019-03-21T02:57:07.929Z,1.80
2019-03-21T02:59:40.165Z,1.50
2019-03-21T03:02:12.387Z,1.67
2019-03-21T03:04:44.624Z,1.90
2019-03-21T03:07:16.849Z,1.70
2019-03-21T03:09:49.078Z,1.90
2019-03-21T03:12:21.300Z,1.70
2019-03-21T03:14:53.550Z,1.75
2019-03-21T03:17:25.843Z,1.90
2019-03-21T03:19:58.080Z,1.62
2019-03-21T03:22:30.303Z,1.80
2019-03-21T03:25:02.576Z,1.57
2019-03-21T03:27:34.810Z,1.70
2019-03-21T03:30:08.618Z,1.72
2019-03-21T03:32:40.842Z,1.98
2019-03-21T03:35:13.457Z,2.20
2019-03-21T03:37:45.680Z,2.10
2019-03-21T03:40:22.450Z,1.72
2019-03-21T03:42:54.710Z,1.92
2019-03-21T03:45:37.517Z,1.90
2019-03-21T03:48:02.291Z,1.80
2019-03-21T03:50:34.546Z,1.60
2019-03-21T03:53:06.748Z,2.10
2019-03-21T03:55:38.992Z,2.00
2019-03-21T03:58:21.860Z,2.10
2019-03-21T04:00:54.117Z,2.58
2019-03-21T04:03:27.359Z,2.77
2019-03-21T04:05:59.616Z,2.52
2019-03-21T04:08:31.841Z,2.08
2019-03-21T04:11:04.123Z,2.58
2019-03-21T04:13:36.609Z,2.80
2019-03-21T04:16:08.871Z,2.58
2019-03-21T04:18:41.148Z,2.40
2019-03-21T04:21:14.068Z,2.50
2019-03-21T04:23:46.281Z,2.58
2019-03-21T04:26:29.462Z,1.90
2019-03-21T04:29:01.704Z,1.85
2019-03-21T04:31:33.957Z,2.05
2019-03-21T04:34:07.699Z,1.87
2019-03-21T04:36:40.012Z,2.08
2019-03-21T04:39:12.277Z,1.72
2019-03-21T04:41:44.872Z,2.22
2019-03-21T04:44:17.104Z,2.08
2019-03-21T04:46:49.334Z,2.70
2019-03-21T04:49:21.552Z,2.47
2019-03-21T04:51:54.483Z,2.70
2019-03-21T04:54:26.760Z,2.98
2019-03-21T04:56:59.004Z,2.22
2019-03-21T04:59:31.279Z,2.67
2019-03-21T05:02:03.515Z,2.25
2019-03-21T05:04:35.751Z,2.05
2019-03-21T05:07:07.967Z,2.37
2019-03-21T05:09:40.230Z,1.83
2019-03-21T05:12:12.521Z,2.12
2019-03-21T05:14:44.738Z,2.08
2019-03-21T05:17:16.970Z,2.30
2019-03-21T05:19:49.215Z,2.83
2019-03-21T05:22:21.470Z,3.30
2019-03-21T05:24:53.704Z,3.20
2019-03-21T05:27:25.970Z,3.92
2019-03-21T05:29:58.221Z,3.77
2019-03-21T05:32:30.449Z,3.80
2019-03-21T05:35:02.690Z,3.62
2019-03-21T05:37:34.916Z,4.03
2019-03-21T05:40:11.374Z,3.85
2019-03-21T05:42:45.140Z,3.63
2019-03-21T05:45:18.951Z,4.17
2019-03-21T05:47:51.189Z,3.62
2019-03-21T05:50:23.416Z,3.90
2019-03-21T05:52:55.655Z,4.10
2019-03-21T05:55:27.870Z,3.77
2019-03-21T05:58:00.131Z,3.95
2019-03-21T06:00:38.203Z,3.90
2019-03-21T06:03:14.874Z,4.15
2019-03-21T06:05:48.648Z,3.40
2019-03-21T06:08:37.299Z,3.67
2019-03-21T06:11:09.538Z,3.98
2019-03-21T06:13:41.802Z,3.62
2019-03-21T06:16:14.018Z,3.72
2019-03-21T06:18:47.806Z,3.92
2019-03-21T06:21:36.622Z,3.90
2019-03-21T06:24:19.397Z,4.05
2019-03-21T06:26:55.896Z,4.58
2019-03-21T06:29:28.392Z,4.17
2019-03-21T06:32:00.623Z,3.65
2019-03-21T06:34:32.866Z,3.45
2019-03-21T06:37:05.089Z,4.47
2019-03-21T06:39:37.313Z,3.60
2019-03-21T06:42:09.538Z,4.15
2019-03-21T06:44:41.848Z,3.98
2019-03-21T06:47:14.085Z,4.12
2019-03-21T06:49:46.640Z,3.47
2019-03-21T06:52:18.965Z,4.37
2019-03-21T06:54:51.215Z,2.90
2019-03-21T06:57:23.426Z,3.05
2019-03-21T06:59:55.694Z,3.33
2019-03-21T07:02:27.924Z,4.15
2019-03-21T07:05:00.338Z,3.67
2019-03-21T07:07:32.570Z,3.25
2019-03-21T07:10:06.587Z,3.40
2019-03-21T07:12:38.810Z,3.27
2019-03-21T07:15:11.379Z,3.25
2019-03-21T07:17:43.623Z,2.70
2019-03-21T07:20:15.873Z,3.27
2019-03-21T07:22:48.091Z,4.10
2019-03-21T07:25:20.350Z,4.20
2019-03-21T07:27:52.587Z,4.25
2019-03-21T07:30:24.862Z,4.70
2019-03-21T07:32:57.120Z,4.37
2019-03-21T07:35:30.015Z,4.37
2019-03-21T07:38:02.411Z,4.53
2019-03-21T07:40:34.941Z,4.30
2019-03-21T07:43:07.191Z,4.25
2019-03-21T07:45:39.439Z,4.03
2019-03-21T07:48:11.731Z,4.53
2019-03-21T07:50:43.986Z,4.60
2019-03-21T07:53:16.214Z,4.58
2019-03-21T07:55:48.475Z,4.65
2019-03-21T07:58:20.686Z,4.95
2019-03-21T08:00:52.928Z,5.58
2019-03-21T08:03:25.186Z,5.20
2019-03-21T08:05:57.403Z,5.37
2019-03-21T08:08:30.059Z,5.33
2019-03-21T08:11:03.358Z,5.55
2019-03-21T08:13:35.592Z,5.40
2019-03-21T08:16:07.829Z,5.87
2019-03-21T08:18:40.063Z,5.40
2019-03-21T08:21:12.407Z,6.35
2019-03-21T08:23:44.654Z,5.87
2019-03-21T08:26:16.907Z,5.85
2019-03-21T08:28:49.122Z,5.90
2019-03-21T08:31:21.372Z,6.42
2019-03-21T08:33:53.604Z,5.30
2019-03-21T08:36:25.888Z,5.95
2019-03-21T08:38:58.111Z,6.22
2019-03-21T08:41:30.342Z,5.33
2019-03-21T08:44:02.582Z,6.08
2019-03-21T08:46:34.836Z,6.67
2019-03-21T08:49:07.062Z,6.85
2019-03-21T08:51:39.316Z,7.10
2019-03-21T08:54:11.570Z,6.65
2019-03-21T08:56:43.838Z,6.05
2019-03-21T08:59:16.073Z,6.28
2019-03-21T09:01:48.312Z,6.17
2019-03-21T09:04:20.649Z,6.53
2019-03-21T09:06:52.943Z,6.80
2019-03-21T09:09:25.215Z,7.60
2019-03-21T09:11:57.600Z,6.33
2019-03-21T09:14:30.121Z,7.28
2019-03-21T09:17:02.384Z,8.38
2019-03-21T09:19:35.534Z,6.80
2019-03-21T09:22:07.784Z,6.85
2019-03-21T09:24:40.018Z,7.60
2019-03-21T09:27:12.370Z,7.05
2019-03-21T09:29:53.543Z,7.03
2019-03-21T09:32:19.619Z,6.83
2019-03-21T09:34:51.852Z,6.15
2019-03-21T09:37:24.096Z,6.42
2019-03-21T09:39:56.394Z,5.37
2019-03-21T09:42:28.646Z,6.53
2019-03-21T09:45:00.887Z,5.85
2019-03-21T09:47:33.122Z,5.80
2019-03-21T09:50:05.851Z,5.58
2019-03-21T09:52:38.084Z,4.15
2019-03-21T09:55:10.327Z,4.53
2019-03-21T09:57:42.685Z,3.87
2019-03-21T10:00:16.444Z,3.47
2019-03-21T10:02:48.703Z,3.00
2019-03-21T10:05:20.951Z,3.25
2019-03-21T10:07:53.200Z,3.42
2019-03-21T10:10:26.500Z,3.75
2019-03-21T10:12:58.743Z,3.25
2019-03-21T10:15:31.048Z,3.70
2019-03-21T10:18:03.485Z,5.15
2019-03-21T10:20:35.689Z,4.53
2019-03-21T10:23:07.944Z,5.05
2019-03-21T10:25:40.178Z,4.47
2019-03-21T10:28:12.400Z,3.80
2019-03-21T10:30:44.638Z,3.15
2019-03-21T10:33:17.565Z,3.42
2019-03-21T10:35:49.790Z,3.22
2019-03-21T10:38:22.048Z,2.50
2019-03-21T10:40:54.266Z,2.37
2019-03-21T10:43:26.567Z,2.45
2019-03-21T10:45:58.863Z,3.37
2019-03-21T10:48:31.111Z,2.75
2019-03-21T10:51:03.328Z,3.27
2019-03-21T10:53:35.563Z,2.87
2019-03-21T10:56:07.807Z,3.00
2019-03-21T10:58:40.125Z,4.20
2019-03-21T11:01:12.378Z,4.15
2019-03-21T11:03:44.678Z,4.70
2019-03-21T11:06:16.932Z,3.05
2019-03-21T11:08:49.196Z,3.47
2019-03-21T11:11:21.440Z,3.37
2019-03-21T11:13:53.670Z,3.10
2019-03-21T11:16:25.902Z,3.77
2019-03-21T11:18:58.216Z,2.98
2019-03-21T11:21:30.418Z,3.55
2019-03-21T11:24:02.648Z,3.15
2019-03-21T11:26:34.883Z,3.20
2019-03-21T11:29:07.111Z,3.67
2019-03-21T11:31:39.351Z,4.10
2019-03-21T11:34:11.590Z,4.00
2019-03-21T11:36:43.819Z,5.05
2019-03-21T11:39:16.073Z,4.92
2019-03-21T11:41:48.307Z,4.12
2019-03-21T11:44:20.545Z,4.80
2019-03-21T11:46:52.837Z,5.67
2019-03-21T11:49:25.113Z,4.90
2019-03-21T11:51:57.371Z,4.72
2019-03-21T11:54:29.577Z,5.42
2019-03-21T11:57:01.828Z,5.55
2019-03-21T11:59:46.465Z,6.00
2019-03-21T12:02:08.011Z,6.40
2019-03-21T12:04:40.226Z,6.47
2019-03-21T12:07:12.471Z,5.25
2019-03-21T12:09:44.708Z,6.05
2019-03-21T12:12:16.943Z,5.03
2019-03-21T12:14:49.183Z,6.08
2019-03-21T12:17:21.436Z,5.65
2019-03-21T12:19:53.666Z,5.70
2019-03-21T12:22:30.359Z,5.78
2019-03-21T12:24:59.855Z,5.22
2019-03-21T12:27:32.122Z,5.60
2019-03-21T12:30:05.720Z,5.47
2019-03-21T12:32:38.001Z,4.72
2019-03-21T12:35:10.293Z,5.15
2019-03-21T12:37:42.536Z,5.33
2019-03-21T12:40:14.750Z,4.87
2019-03-21T12:42:46.994Z,4.95
2019-03-21T12:45:19.214Z,4.72
2019-03-21T12:47:51.471Z,4.72
2019-03-21T12:50:23.730Z,5.67
2019-03-21T12:52:56.053Z,5.00
2019-03-21T12:55:28.277Z,5.30
2019-03-21T12:58:00.625Z,5.40
2019-03-21T13:00:33.932Z,4.70
2019-03-21T13:03:06.171Z,4.58
2019-03-21T13:05:38.407Z,4.65
2019-03-21T13:08:10.637Z,4.50
2019-03-21T13:10:42.884Z,3.83
2019-03-21T13:13:15.125Z,4.10
2019-03-21T13:15:47.379Z,5.08
2019-03-21T13:18:19.622Z,4.12
2019-03-21T13:20:51.857Z,4.50
2019-03-21T13:23:24.121Z,3.98
2019-03-21T13:25:56.328Z,4.53
2019-03-21T13:28:28.565Z,4.87
2019-03-21T13:31:00.793Z,4.10
2019-03-21T13:33:33.147Z,4.90
2019-03-21T13:36:05.638Z,4.15
2019-03-21T13:38:37.893Z,4.60
2019-03-21T13:41:10.124Z,4.10
2019-03-21T13:43:42.338Z,3.87
2019-03-21T13:46:14.624Z,3.90
2019-03-21T13:48:46.892Z,3.22
2019-03-21T13:51:19.106Z,3.90
2019-03-21T13:53:51.350Z,3.50
2019-03-21T13:56:23.566Z,3.83
2019-03-21T14:01:28.359Z,3.20
2019-03-21T14:04:01.905Z,3.37
2019-03-21T14:06:34.303Z,3.95
2019-03-21T14:09:07.035Z,3.50
2019-03-21T14:11:39.272Z,3.62
2019-03-21T14:14:11.503Z,3.62
2019-03-21T14:16:43.743Z,3.52
2019-03-21T14:19:16.010Z,3.42
2019-03-21T14:21:48.239Z,3.50
2019-03-21T14:24:20.467Z,3.52
2019-03-21T14:26:52.698Z,3.85
2019-03-21T14:29:24.946Z,3.52
2019-03-21T14:31:57.191Z,3.40
2019-03-21T14:34:29.420Z,3.47
2019-03-21T14:37:01.660Z,3.70
2019-03-21T14:39:33.880Z,3.95
2019-03-21T14:42:06.109Z,3.50
2019-03-21T14:44:39.294Z,3.30
2019-03-21T14:47:11.557Z,4.00
2019-03-21T14:49:43.803Z,3.92
2019-03-21T14:52:16.023Z,3.50
2019-03-21T14:54:48.252Z,3.95
2019-03-21T14:57:20.503Z,3.85
2019-03-21T14:59:52.736Z,3.30
2019-03-21T15:02:24.974Z,3.40
2019-03-21T15:04:57.214Z,3.45
2019-03-21T15:07:29.475Z,3.17
2019-03-21T15:10:01.740Z,3.50
2019-03-21T15:12:33.951Z,3.08
2019-03-21T15:15:07.379Z,2.92
2019-03-21T15:17:39.604Z,3.12
2019-03-21T15:20:15.286Z,3.45
2019-03-21T15:22:47.554Z,3.42
2019-03-21T15:25:19.813Z,3.17
2019-03-21T15:27:52.013Z,3.27
2019-03-21T15:30:24.242Z,3.20
2019-03-21T15:32:56.483Z,4.00
2019-03-21T15:35:28.719Z,3.12
2019-03-21T15:38:00.931Z,3.67
2019-03-21T15:40:33.172Z,3.12
2019-03-21T15:43:05.412Z,3.05
2019-03-21T15:45:37.642Z,3.52
2019-03-21T15:48:09.863Z,3.10
2019-03-21T15:50:42.100Z,3.12
2019-03-21T15:53:14.331Z,2.98
2019-03-21T15:55:46.549Z,3.02
2019-03-21T15:58:18.780Z,2.67
2019-03-21T16:00:51.015Z,2.55
2019-03-21T16:03:23.228Z,2.95
2019-03-21T16:05:55.461Z,3.47
2019-03-21T16:08:27.674Z,3.25
2019-03-21T16:10:59.925Z,2.92
2019-03-21T16:13:32.148Z,3.12
2019-03-21T16:16:04.369Z,2.80
2019-03-21T16:18:36.590Z,3.30
2019-03-21T16:21:08.824Z,2.98
2019-03-21T16:23:41.043Z,3.40
2019-03-21T16:26:13.294Z,3.17
2019-03-21T16:28:45.566Z,3.33
2019-03-21T16:31:17.784Z,3.22
2019-03-21T16:33:50.022Z,2.83
2019-03-21T16:36:22.231Z,3.20
2019-03-21T16:38:54.491Z,2.75
2019-03-21T16:41:26.742Z,2.87
2019-03-21T16:43:58.951Z,2.87
2019-03-21T16:46:31.310Z,3.02
2019-03-21T16:49:03.559Z,2.42
2019-03-21T16:51:35.775Z,3.00
2019-03-21T16:54:16.990Z,3.02
2019-03-21T16:56:42.026Z,4.15
2019-03-21T16:59:14.296Z,4.50
2019-03-21T17:01:46.623Z,4.10
2019-03-21T17:04:18.859Z,3.95
2019-03-21T17:06:51.100Z,3.67
2019-03-21T17:09:23.351Z,3.87
2019-03-21T17:11:55.611Z,4.35
2019-03-21T17:14:27.949Z,4.08
2019-03-21T17:17:00.181Z,4.10
2019-03-21T17:19:32.485Z,4.40
2019-03-21T17:22:04.708Z,4.75
2019-03-21T17:24:37.009Z,4.37
2019-03-21T17:27:09.304Z,3.70
2019-03-21T17:29:41.569Z,4.22
2019-03-21T17:32:13.785Z,3.42
2019-03-21T17:34:46.147Z,3.15
2019-03-21T17:37:18.500Z,3.30
2019-03-21T17:39:50.763Z,2.67
2019-03-21T17:42:23.011Z,2.58
2019-03-21T17:44:55.307Z,2.72
2019-03-21T17:47:27.545Z,2.80
2019-03-21T17:49:59.807Z,2.50
2019-03-21T17:52:32.038Z,2.08
2019-03-21T17:55:05.477Z,2.27
2019-03-21T17:57:37.903Z,2.30
2019-03-21T18:00:11.725Z,2.27
2019-03-21T18:02:44.205Z,1.90
2019-03-21T18:05:16.534Z,2.17
2019-03-21T18:07:48.772Z,2.25
2019-03-21T18:10:22.574Z,2.00
2019-03-21T18:12:55.387Z,1.87
2019-03-21T18:15:27.709Z,2.30
2019-03-21T18:17:59.923Z,2.00
2019-03-21T18:20:32.165Z,2.20
2019-03-21T18:23:04.381Z,2.08
2019-03-21T18:25:36.614Z,2.05
2019-03-21T18:28:09.077Z,1.90
2019-03-21T18:30:41.386Z,1.98
2019-03-21T18:33:13.610Z,2.08
2019-03-21T18:35:45.864Z,2.30
2019-03-21T18:38:18.083Z,2.30
2019-03-21T18:40:50.324Z,2.30
2019-03-21T18:43:22.540Z,2.50
2019-03-21T18:45:54.813Z,2.37
2019-03-21T18:48:27.044Z,1.72
2019-03-21T18:50:59.315Z,1.90
2019-03-21T18:53:31.662Z,2.10
2019-03-21T18:56:03.891Z,2.17
2019-03-21T18:58:36.122Z,2.20
2019-03-21T19:01:08.377Z,2.00
2019-03-21T19:03:40.614Z,2.20
2019-03-21T19:06:12.857Z,2.37
2019-03-21T19:08:45.076Z,2.02
2019-03-21T19:11:17.395Z,2.22
2019-03-21T19:13:49.618Z,2.55
2019-03-21T19:16:21.873Z,1.98
2019-03-21T19:18:54.119Z,1.95
2019-03-21T19:21:26.359Z,2.30
2019-03-21T19:23:58.604Z,2.35
2019-03-21T19:26:30.868Z,2.55
2019-03-21T19:29:03.119Z,1.75
2019-03-21T19:31:35.339Z,2.08
2019-03-21T19:34:07.583Z,2.50
2019-03-21T19:36:39.839Z,2.10
2019-03-21T19:39:12.063Z,1.95
2019-03-21T19:41:44.320Z,2.27
2019-03-21T19:44:17.439Z,2.12
2019-03-21T19:46:49.704Z,2.17
2019-03-21T19:49:21.957Z,2.60
2019-03-21T19:51:54.226Z,1.95
2019-03-21T19:54:26.547Z,2.35
2019-03-21T19:56:58.819Z,1.87
2019-03-21T19:59:31.048Z,2.50
2019-03-21T20:02:03.507Z,2.50
2019-03-21T20:04:35.763Z,2.10
2019-03-21T20:07:08.023Z,2.40
2019-03-21T20:09:40.266Z,3.10
2019-03-21T20:12:12.597Z,2.83
2019-03-21T20:14:44.813Z,3.00
2019-03-21T20:17:17.055Z,2.92
2019-03-21T20:19:49.306Z,4.35
2019-03-21T20:22:21.569Z,3.58
2019-03-21T20:24:53.795Z,3.62
2019-03-21T20:27:26.076Z,3.80
2019-03-21T20:29:58.349Z,3.92
2019-03-21T20:32:30.917Z,3.90
2019-03-21T20:35:04.114Z,4.17
2019-03-21T20:37:36.360Z,3.60
2019-03-21T20:40:10.055Z,3.60
2019-03-21T20:42:42.304Z,3.90
2019-03-21T20:45:15.495Z,4.35
2019-03-21T20:47:47.808Z,4.08
2019-03-21T20:50:20.043Z,4.30
2019-03-21T20:52:54.174Z,4.53
2019-03-21T20:55:26.475Z,5.40
2019-03-21T20:57:58.784Z,4.53
2019-03-21T21:00:31.110Z,4.83
2019-03-21T21:03:03.405Z,5.22
2019-03-21T21:05:35.649Z,4.97
2019-03-21T21:08:07.876Z,4.80
2019-03-21T21:10:40.108Z,4.70
2019-03-21T21:13:12.382Z,5.17
2019-03-21T21:15:44.614Z,5.03
2019-03-21T21:18:16.915Z,5.12
2019-03-21T21:20:49.205Z,4.97
2019-03-21T21:23:21.453Z,4.97
2019-03-21T21:26:04.823Z,4.67
2019-03-21T21:28:27.679Z,5.50
2019-03-21T21:31:01.852Z,4.97
2019-03-21T21:33:34.130Z,6.05
2019-03-21T21:36:07.308Z,5.67
2019-03-21T21:38:39.573Z,6.07
2019-03-21T21:41:11.999Z,5.60
2019-03-21T21:43:44.245Z,4.97
2019-03-21T21:46:16.508Z,5.60
2019-03-21T21:48:48.753Z,5.67
2019-03-21T21:51:20.988Z,5.80
2019-03-21T21:53:53.236Z,5.92
2019-03-21T21:56:25.494Z,5.90
2019-03-21T21:58:57.778Z,4.85
2019-03-21T22:01:30.007Z,5.60
2019-03-21T22:04:04.925Z,5.22
2019-03-21T22:06:36.227Z,5.53
2019-03-21T22:09:08.495Z,5.17
2019-03-21T22:11:40.733Z,5.28
2019-03-21T22:14:13.012Z,5.55
2019-03-21T22:16:45.224Z,5.10
2019-03-21T22:19:17.580Z,4.45
2019-03-21T22:21:49.805Z,5.43
2019-03-21T22:24:22.034Z,5.00
2019-03-21T22:26:54.292Z,4.92
2019-03-21T22:29:26.547Z,4.70
2019-03-21T22:31:58.787Z,4.40
2019-03-21T22:34:31.033Z,4.08
2019-03-21T22:37:03.276Z,3.90
2019-03-21T22:39:35.499Z,4.70
2019-03-21T22:42:07.757Z,4.35
2019-03-21T22:44:39.975Z,3.87
2019-03-21T22:47:12.227Z,4.83
2019-03-21T22:49:44.453Z,4.87
2019-03-21T22:52:16.698Z,3.77
2019-03-21T22:54:48.939Z,4.42
2019-03-21T22:57:21.185Z,4.25
2019-03-21T22:59:53.435Z,4.22
2019-03-21T23:02:25.680Z,4.95
2019-03-21T23:04:57.912Z,4.42
2019-03-21T23:07:30.163Z,3.50
2019-03-21T23:10:03.291Z,4.40
2019-03-21T23:12:35.578Z,4.87
2019-03-21T23:15:11.816Z,4.50
2019-03-21T23:17:44.187Z,3.75
2019-03-21T23:20:16.480Z,3.45
2019-03-21T23:22:48.888Z,3.37
2019-03-21T23:25:21.126Z,3.60
2019-03-21T23:27:53.370Z,3.72
2019-03-21T23:30:25.651Z,3.33
2019-03-21T23:32:57.948Z,3.80
2019-03-21T23:35:30.166Z,3.20
2019-03-21T23:38:02.430Z,3.00
2019-03-21T23:40:34.716Z,2.87
2019-03-21T23:43:06.993Z,3.30
2019-03-21T23:45:39.275Z,3.45
2019-03-21T23:48:11.534Z,3.60
2019-03-21T23:50:43.785Z,3.80
2019-03-21T23:53:16.101Z,3.30
2019-03-21T23:55:48.389Z,3.20
2019-03-21T23:58:20.609Z,3.45
